Time;durP1;ratioP1;P1;durP2;ratioP2;P2;SDS_P1;SDS_P2;PMS_P1;PMS_P2;Temp;Humidity;BMP_temperature;BMP_pressure;BME280_temperature;BME280_humidity;BME280_pressure;Samples;Min_cycle;Max_cycle;Signal;HPM_P1;HPM_P2
2023/03/28 00:00:56;;;;;;;3.40;2.30;;;;;;;1.22;100.00;151681.63;5033047;28;20515;-81
2023/03/28 00:03:24;;;;;;;2.63;2.10;;;;;;;1.21;100.00;151680.41;5027329;28;20437;-81
2023/03/28 00:05:54;;;;;;;3.07;2.30;;;;;;;1.18;100.00;151672.69;5021287;28;20785;-80
2023/03/28 00:08:20;;;;;;;2.70;2.20;;;;;;;1.18;100.00;151672.69;5018793;28;20453;-80
2023/03/28 00:10:47;;;;;;;2.80;1.80;;;;;;;1.17;100.00;151668.78;5022457;28;20552;-80
2023/03/28 00:13:14;;;;;;;2.90;2.30;;;;;;;1.18;100.00;151671.38;5018617;28;20449;-81
2023/03/28 00:15:42;;;;;;;3.00;2.00;;;;;;;1.15;100.00;151664.97;5032504;28;20531;-80
2023/03/28 00:18:11;;;;;;;3.97;2.60;;;;;;;1.14;100.00;151662.38;5023260;28;20437;-80
2023/03/28 00:20:38;;;;;;;4.63;1.87;;;;;;;1.17;100.00;151670.09;5030389;28;20507;-80
2023/03/28 00:23:06;;;;;;;4.43;2.53;;;;;;;1.13;100.00;151658.53;5032319;28;20468;-80
2023/03/28 00:25:34;;;;;;;4.37;2.57;;;;;;;1.09;100.00;151648.25;5027768;28;20837;-80
2023/03/28 00:28:02;;;;;;;4.07;2.33;;;;;;;1.06;100.00;151641.81;5001008;28;20548;-80
2023/03/28 00:30:28;;;;;;;3.63;2.10;;;;;;;1.05;100.00;151638.00;5023640;28;20440;-80
2023/03/28 00:32:56;;;;;;;1.90;1.57;;;;;;;1.08;100.00;151645.69;5016844;28;20764;-80
2023/03/28 00:35:24;;;;;;;3.20;2.03;;;;;;;1.09;100.00;151649.53;5031289;28;20437;-81
2023/03/28 00:37:56;;;;;;;5.13;2.60;;;;;;;1.11;100.00;151654.66;5014229;28;20448;-80
2023/03/28 00:40:24;;;;;;;3.83;1.97;;;;;;;1.08;100.00;151647.00;5031047;28;20482;-80
2023/03/28 00:42:52;;;;;;;3.40;1.87;;;;;;;1.07;100.00;151644.41;5014412;28;20479;-80
2023/03/28 00:45:20;;;;;;;4.63;2.20;;;;;;;1.05;100.00;151638.00;5031054;28;20443;-80
2023/03/28 00:47:51;;;;;;;2.67;2.10;;;;;;;1.05;100.00;151639.28;5005000;28;21006;-80
2023/03/28 00:50:20;;;;;;;2.60;2.00;;;;;;;1.04;100.00;151636.69;5028869;28;20447;-80
2023/03/28 00:52:53;;;;;;;2.63;1.77;;;;;;;1.08;100.00;151647.00;5014213;28;20924;-76
2023/03/28 00:55:23;;;;;;;2.47;2.10;;;;;;;1.09;100.00;151649.53;5030662;28;20445;-75
2023/03/28 00:57:51;;;;;;;3.37;1.73;;;;;;;1.03;100.00;151634.09;5024015;28;20467;-76
2023/03/28 01:00:19;;;;;;;2.60;1.87;;;;;;;1.01;100.00;151628.97;5028074;28;20561;-76
2023/03/28 01:02:49;;;;;;;3.13;1.73;;;;;;;0.99;100.00;151623.84;5011456;28;20453;-76
2023/03/28 01:05:18;;;;;;;2.23;1.87;;;;;;;0.99;100.00;151622.56;5000316;28;20465;-76
2023/03/28 01:07:48;;;;;;;3.43;2.00;;;;;;;1.00;100.00;151625.16;5009841;28;20462;-76
2023/03/28 01:10:21;;;;;;;2.90;2.20;;;;;;;1.00;100.00;151626.44;5007714;28;20461;-76
2023/03/28 01:12:48;;;;;;;2.00;1.80;;;;;;;0.92;100.00;151604.59;5017576;28;20886;-76
2023/03/28 01:15:18;;;;;;;2.43;1.70;;;;;;;0.86;100.00;151590.47;5013484;28;20444;-75
2023/03/28 01:17:56;;;;;;;2.07;1.70;;;;;;;0.87;100.00;151593.06;5028742;28;20558;-75
2023/03/28 01:20:31;;;;;;;4.17;1.70;;;;;;;0.85;100.00;151586.63;5026392;28;20476;-75
2023/03/28 01:23:27;;;;;;;2.13;1.80;;;;;;;0.85;100.00;151587.88;5021833;28;20566;-75
2023/03/28 01:26:45;;;;;;;3.50;2.07;;;;;;;0.82;100.00;151580.16;4993315;28;20465;-75
2023/03/28 01:30:01;;;;;;;4.53;1.87;;;;;;;0.79;100.00;151572.50;5018350;28;20437;-75
2023/03/28 01:32:56;;;;;;;4.03;1.90;;;;;;;0.72;100.00;151553.22;5009839;28;20448;-75
2023/03/28 01:35:56;;;;;;;4.93;2.17;;;;;;;0.69;100.00;151545.53;5010379;28;20453;-75
2023/03/28 01:38:28;;;;;;;2.30;1.50;;;;;;;0.67;100.00;151540.38;4997344;28;20480;-75
2023/03/28 01:41:00;;;;;;;3.07;2.00;;;;;;;0.64;100.00;151533.94;5028497;28;20471;-76
2023/03/28 01:43:36;;;;;;;2.13;1.93;;;;;;;0.63;100.00;151531.41;5000375;28;20836;-75
2023/03/28 01:46:07;;;;;;;3.13;2.40;;;;;;;0.67;100.00;151541.66;5023438;28;20462;-76
2023/03/28 01:48:41;;;;;;;3.50;2.27;;;;;;;0.66;100.00;151537.84;5013414;28;20565;-75
2023/03/28 01:51:11;;;;;;;3.53;2.20;;;;;;;0.63;100.00;151531.41;5003145;28;20442;-76
2023/03/28 01:53:44;;;;;;;4.43;2.30;;;;;;;0.61;100.00;151527.53;5029365;28;20792;-75
2023/03/28 01:56:14;;;;;;;3.03;2.50;;;;;;;0.59;100.00;151522.41;5018580;28;20475;-76
2023/03/28 01:58:45;;;;;;;3.00;2.40;;;;;;;0.62;100.00;151528.81;5043685;28;20526;-75
2023/03/28 02:01:23;;;;;;;4.20;2.33;;;;;;;0.63;100.00;151530.13;5013214;28;20873;-75
2023/03/28 02:03:52;;;;;;;3.83;2.90;;;;;;;0.62;100.00;151528.81;5012973;28;20841;-81
2023/03/28 02:06:34;;;;;;;3.10;2.00;;;;;;;0.64;100.00;151533.94;5013436;28;20440;-81
2023/03/28 02:09:04;;;;;;;2.53;2.00;;;;;;;0.65;100.00;151536.53;5013104;28;20436;-81
2023/03/28 02:11:48;;;;;;;5.10;2.50;;;;;;;0.65;100.00;151536.53;5012150;28;20470;-81
2023/03/28 02:14:26;;;;;;;3.10;2.33;;;;;;;0.63;100.00;151531.41;5012677;28;20856;-81
2023/03/28 02:17:19;;;;;;;2.90;2.13;;;;;;;0.59;100.00;151521.13;5018498;28;20684;-81
2023/03/28 02:20:10;;;;;;;2.60;2.20;;;;;;;0.57;100.00;151516.00;5021400;28;20498;-81
2023/03/28 02:23:09;;;;;;;6.50;2.23;;;;;;;0.57;100.00;151516.00;5004870;28;20476;-81
2023/03/28 02:25:49;;;;;;;3.83;2.53;;;;;;;0.60;100.00;151523.72;5012445;28;20469;-79
2023/03/28 02:28:36;;;;;;;4.70;2.40;;;;;;;0.58;100.00;151518.59;5019421;28;20447;-80
2023/03/28 02:31:15;;;;;;;4.73;2.90;;;;;;;0.55;100.00;151510.88;5002046;28;20436;-81
2023/03/28 02:33:43;;;;;;;2.70;2.17;;;;;;;0.53;100.00;151505.75;5012673;28;20539;-81
2023/03/28 02:36:21;;;;;;;4.40;2.73;;;;;;;0.51;100.00;151500.56;5012985;28;20693;-81
2023/03/28 02:38:54;;;;;;;3.13;2.70;;;;;;;0.51;100.00;151500.56;5044211;28;20523;-81
2023/03/28 02:41:30;;;;;;;4.03;2.50;;;;;;;0.49;100.00;151495.44;5006390;28;20819;-81
2023/03/28 02:44:10;;;;;;;4.00;2.60;;;;;;;0.49;100.00;151495.44;5016981;28;20442;-81
2023/03/28 02:46:44;;;;;;;4.93;2.60;;;;;;;0.51;100.00;151500.56;5013159;28;20451;-80
2023/03/28 02:49:26;;;;;;;5.37;2.90;;;;;;;0.49;100.00;151496.75;5014917;28;20461;-80
2023/03/28 02:52:02;;;;;;;6.77;3.07;;;;;;;0.50;100.00;151498.03;5050155;28;20457;-81
2023/03/28 02:54:34;;;;;;;2.83;2.40;;;;;;;0.47;100.00;151490.34;5022213;28;20475;-81
2023/03/28 02:57:31;;;;;;;2.93;2.40;;;;;;;0.47;100.00;151490.34;5008582;28;20442;-81
2023/03/28 03:00:08;;;;;;;7.67;2.70;;;;;;;0.48;100.00;151492.88;5015843;28;20470;-81
2023/03/28 03:02:35;;;;;;;3.40;2.77;;;;;;;0.44;100.00;151483.91;5027070;28;20434;-81
2023/03/28 03:05:02;;;;;;;4.67;2.50;;;;;;;0.43;100.00;151481.31;5029213;28;20499;-81
2023/03/28 03:07:30;;;;;;;2.93;2.30;;;;;;;0.44;100.00;151482.63;5006041;28;20436;-81
2023/03/28 03:09:56;;;;;;;3.47;2.47;;;;;;;0.45;100.00;151485.22;5013946;28;20461;-81
2023/03/28 03:12:23;;;;;;;3.97;2.30;;;;;;;0.36;100.00;151462.09;5050498;28;20524;-81
2023/03/28 03:14:59;;;;;;;4.40;3.03;;;;;;;0.39;100.00;151469.78;5008831;28;20468;-81
2023/03/28 03:17:48;;;;;;;3.53;2.50;;;;;;;0.38;100.00;151467.19;5008711;28;20498;-81
2023/03/28 03:20:22;;;;;;;5.77;2.90;;;;;;;0.31;100.00;151449.25;5013550;28;20511;-81
2023/03/28 03:22:48;;;;;;;3.63;2.80;;;;;;;0.29;100.00;151444.13;5009784;28;20472;-81
2023/03/28 03:25:15;;;;;;;4.17;3.13;;;;;;;0.26;100.00;151436.41;5038651;28;20457;-81
2023/03/28 03:27:53;;;;;;;3.83;2.50;;;;;;;0.24;100.00;151431.28;5013400;28;20441;-81
2023/03/28 03:30:21;;;;;;;3.20;2.53;;;;;;;0.23;100.00;151428.72;5029457;28;20472;-81
2023/03/28 03:33:15;;;;;;;4.20;2.40;;;;;;;0.20;100.00;151422.28;5007609;28;20548;-81
2023/03/28 03:35:44;;;;;;;2.80;2.17;;;;;;;0.15;100.00;151409.47;5044773;28;20518;-81
2023/03/28 03:38:12;;;;;;;3.47;2.53;;;;;;;0.14;100.00;151405.59;5003739;28;20452;-81
2023/03/28 03:40:39;;;;;;;2.67;2.30;;;;;;;0.10;100.00;151396.63;5014941;28;20466;-81
2023/03/28 03:43:06;;;;;;;5.27;3.23;;;;;;;0.04;100.00;151379.94;5031964;28;20472;-81
2023/03/28 03:45:36;;;;;;;4.37;3.27;;;;;;;-0.03;100.00;151364.53;5015084;28;20459;-81
2023/03/28 03:48:04;;;;;;;3.47;2.67;;;;;;;-0.06;100.00;151356.88;5015593;28;20878;-81
2023/03/28 03:50:31;;;;;;;5.27;2.90;;;;;;;-0.08;100.00;151351.69;5000851;28;20566;-81
2023/03/28 03:52:58;;;;;;;4.10;2.60;;;;;;;-0.09;100.00;151349.16;5027569;28;20519;-81
2023/03/28 03:55:31;;;;;;;3.67;2.80;;;;;;;-0.10;100.00;151346.56;5022106;28;20492;-81
2023/03/28 03:57:58;;;;;;;4.33;2.93;;;;;;;-0.09;100.00;151349.16;5010153;28;20552;-76
2023/03/28 04:00:26;;;;;;;3.03;2.30;;;;;;;-0.09;100.00;151347.88;5031052;28;20455;-76
2023/03/28 04:02:54;;;;;;;6.33;2.40;;;;;;;-0.11;100.00;151344.00;5025644;28;20432;-77
2023/03/28 04:05:24;;;;;;;5.10;3.00;;;;;;;-0.14;100.00;151335.03;5020038;28;20459;-76
2023/03/28 04:08:05;;;;;;;3.97;3.10;;;;;;;-0.17;100.00;151328.63;5031859;28;20443;-77
2023/03/28 04:10:37;;;;;;;3.63;2.67;;;;;;;-0.17;100.00;151328.63;5009905;28;20481;-77
2023/03/28 04:13:05;;;;;;;5.40;2.97;;;;;;;-0.17;100.00;151328.63;5005259;28;20439;-76
2023/03/28 04:15:33;;;;;;;3.70;2.57;;;;;;;-0.17;100.00;151327.34;5002199;28;20468;-77
2023/03/28 04:18:20;;;;;;;5.17;3.00;;;;;;;-0.18;100.00;151324.75;5028041;28;20438;-76
2023/03/28 04:20:52;;;;;;;3.37;2.50;;;;;;;-0.18;100.00;151326.03;5031150;28;20480;-76
2023/03/28 04:23:37;;;;;;;4.63;2.60;;;;;;;-0.19;100.00;151323.50;5030933;28;20472;-77
2023/03/28 04:26:07;;;;;;;3.27;2.40;;;;;;;-0.20;100.00;151320.91;5024244;28;20471;-76
2023/03/28 04:28:48;;;;;;;3.43;2.40;;;;;;;-0.21;100.00;151318.34;5028515;28;20439;-77
2023/03/28 04:31:15;;;;;;;3.90;2.13;;;;;;;-0.22;100.00;151314.50;5031067;28;20444;-77
2023/03/28 04:34:02;;;;;;;5.37;2.70;;;;;;;-0.23;100.00;151311.94;5017889;28;20523;-77
2023/03/28 04:36:31;;;;;;;3.00;2.60;;;;;;;-0.23;100.00;151313.22;5012834;28;20439;-77
2023/03/28 04:39:02;;;;;;;4.07;2.60;;;;;;;-0.24;100.00;151310.63;5014026;28;20449;-77
2023/03/28 04:42:00;;;;;;;2.90;2.60;;;;;;;-0.26;100.00;151304.22;5022180;28;20820;-77
2023/03/28 04:44:47;;;;;;;4.33;3.20;;;;;;;-0.24;100.00;151310.63;5022472;28;20448;-76
2023/03/28 04:47:14;;;;;;;3.77;2.97;;;;;;;-0.21;100.00;151318.34;5022322;28;20450;-77
2023/03/28 04:49:42;;;;;;;4.47;2.73;;;;;;;-0.16;100.00;151331.16;5021291;28;20518;-77
2023/03/28 04:52:09;;;;;;;3.73;2.70;;;;;;;-0.22;100.00;151315.81;5028701;28;20480;-77
2023/03/28 04:54:36;;;;;;;5.57;2.90;;;;;;;-0.23;100.00;151313.22;5014796;28;20463;-76
2023/03/28 04:57:08;;;;;;;3.93;2.40;;;;;;;-0.23;100.00;151311.94;5013627;28;20960;-77
2023/03/28 04:59:42;;;;;;;3.83;2.00;;;;;;;-0.26;100.00;151305.50;5030204;28;20455;-77
2023/03/28 05:02:11;;;;;;;4.80;2.60;;;;;;;-0.26;100.00;151304.22;4999823;28;20550;-76
2023/03/28 05:04:53;;;;;;;4.50;2.77;;;;;;;-0.32;100.00;151290.09;5015039;28;20440;-76
2023/03/28 05:07:20;;;;;;;3.40;2.50;;;;;;;-0.39;100.00;151272.16;5001192;28;20463;-77
2023/03/28 05:09:46;;;;;;;4.10;2.77;;;;;;;-0.39;100.00;151272.16;5018433;28;20491;-77
2023/03/28 05:12:13;;;;;;;3.20;2.27;;;;;;;-0.41;100.00;151267.03;5016433;28;20551;-77
2023/03/28 05:14:56;;;;;;;3.77;2.67;;;;;;;-0.43;100.00;151261.94;5017853;28;20447;-77
2023/03/28 05:17:24;;;;;;;3.57;2.67;;;;;;;-0.45;100.00;151256.75;5006890;28;20482;-76
2023/03/28 05:19:50;;;;;;;4.40;2.53;;;;;;;-0.44;100.00;151259.34;5014574;28;20526;-77
2023/03/28 05:22:22;;;;;;;3.47;2.67;;;;;;;-0.47;100.00;151251.63;4997861;28;20576;-77
2023/03/28 05:24:49;;;;;;;5.03;2.60;;;;;;;-0.50;100.00;151243.94;5022089;28;20456;-77
2023/03/28 05:27:18;;;;;;;4.10;2.60;;;;;;;-0.50;100.00;151243.94;4999972;28;20703;-77
2023/03/28 05:29:45;;;;;;;4.70;2.70;;;;;;;-0.51;100.00;151240.09;5015361;28;20454;-76
2023/03/28 05:32:12;;;;;;;3.87;3.13;;;;;;;-0.50;100.00;151243.94;4999982;28;20452;-77
2023/03/28 05:34:40;;;;;;;8.93;3.17;;;;;;;-0.48;100.00;151249.09;5007625;28;20515;-76
2023/03/28 05:37:07;;;;;;;3.60;2.63;;;;;;;-0.49;100.00;151246.53;5030366;28;20480;-76
2023/03/28 05:39:46;;;;;;;5.80;3.70;;;;;;;-0.50;100.00;151242.69;5016788;28;21084;-76
2023/03/28 05:42:13;;;;;;;4.80;3.80;;;;;;;-0.48;100.00;151247.81;5016131;28;20895;-76
2023/03/28 05:44:40;;;;;;;5.30;3.00;;;;;;;-0.47;100.00;151251.63;5013650;28;20864;-76
2023/03/28 05:47:27;;;;;;;4.53;3.23;;;;;;;-0.45;100.00;151256.75;5011817;28;20454;-77
2023/03/28 05:49:53;;;;;;;5.23;3.43;;;;;;;-0.44;100.00;151259.34;4998364;28;20566;-76
2023/03/28 05:52:21;;;;;;;5.20;3.33;;;;;;;-0.38;100.00;151274.75;4999227;28;20449;-77
2023/03/28 05:54:49;;;;;;;3.80;3.30;;;;;;;-0.33;100.00;151287.56;5015281;28;20461;-77
2023/03/28 05:57:17;;;;;;;4.37;3.63;;;;;;;-0.29;100.00;151297.81;5015107;28;20892;-77
2023/03/28 05:59:45;;;;;;;6.33;3.43;;;;;;;-0.23;100.00;151313.22;5017250;28;20809;-76
2023/03/28 06:02:15;;;;;;;5.00;3.50;;;;;;;-0.19;100.00;151322.22;4999206;28;20479;-76
2023/03/28 06:04:43;;;;;;;5.50;3.13;;;;;;;-0.13;100.00;151338.88;5001487;28;20454;-77
2023/03/28 06:07:14;;;;;;;4.53;3.00;;;;;;;-0.02;100.00;151367.09;4998597;28;20459;-77
2023/03/28 06:09:41;;;;;;;5.20;3.40;;;;;;;0.07;100.00;151387.63;5013663;28;21239;-77
2023/03/28 06:12:11;;;;;;;6.97;2.87;;;;;;;0.19;100.00;151418.41;4998825;28;20445;-77
2023/03/28 06:14:42;;;;;;;6.03;3.13;;;;;;;0.34;100.00;151458.25;5002166;28;20452;-77
2023/03/28 06:17:20;;;;;;;4.77;3.33;;;;;;;0.57;100.00;151516.00;5002718;28;20449;-77
2023/03/28 06:19:50;;;;;;;7.00;3.00;;;;;;;0.96;100.00;151616.16;5021011;28;20471;-77
2023/03/28 06:22:17;;;;;;;6.63;3.50;;;;;;;1.35;100.00;151715.03;5002038;28;20554;-77
2023/03/28 06:24:49;;;;;;;4.87;3.90;;;;;;;1.72;100.00;151808.88;5002521;28;20467;-77
2023/03/28 06:27:25;;;;;;;4.43;3.37;;;;;;;2.07;100.00;151898.81;5016343;28;20456;-77
2023/03/28 06:29:52;;;;;;;4.33;2.87;;;;;;;2.37;100.00;151976.00;5003006;28;20457;-77
2023/03/28 06:32:19;;;;;;;3.70;2.80;;;;;;;2.65;100.00;152045.44;5004123;28;20879;-78
2023/03/28 06:34:46;;;;;;;4.93;3.20;;;;;;;2.90;100.00;152111.03;5003616;28;20538;-77
2023/03/28 06:37:13;;;;;;;4.73;3.00;;;;;;;3.15;99.59;152174.03;5017308;28;20487;-78
2023/03/28 06:40:12;;;;;;;3.80;2.93;;;;;;;3.49;98.65;152261.59;5001289;28;21029;-77
2023/03/28 06:42:42;;;;;;;2.93;2.63;;;;;;;3.74;96.87;152323.34;5002795;28;20468;-78
2023/03/28 06:45:19;;;;;;;5.30;3.23;;;;;;;3.89;93.00;152363.25;5003469;28;20460;-77
2023/03/28 06:47:52;;;;;;;2.83;2.40;;;;;;;4.13;92.11;152423.84;5020512;28;20530;-77
2023/03/28 06:50:25;;;;;;;3.30;2.50;;;;;;;4.36;92.85;152481.78;5010124;28;20447;-78
2023/03/28 06:53:04;;;;;;;4.30;2.83;;;;;;;4.56;91.94;152534.59;5018597;28;20287;-79
2023/03/28 06:55:31;;;;;;;2.73;2.43;;;;;;;4.76;89.30;152586.16;5019627;28;20476;-78
2023/03/28 06:58:00;;;;;;;3.90;2.20;;;;;;;4.99;90.04;152644.13;5001258;28;20587;-77
2023/03/28 07:00:33;;;;;;;6.63;2.90;;;;;;;5.10;88.04;152671.19;5017644;28;20815;-78
2023/03/28 07:03:19;;;;;;;5.33;3.13;;;;;;;5.26;86.36;152713.75;5025411;28;20480;-78
2023/03/28 07:05:46;;;;;;;3.40;2.50;;;;;;;5.42;83.96;152755.00;5020182;28;20444;-78
2023/03/28 07:08:13;;;;;;;4.47;2.83;;;;;;;5.67;79.99;152816.84;5004099;28;20480;-78
2023/03/28 07:10:40;;;;;;;4.37;2.60;;;;;;;5.91;80.56;152880.09;5014511;28;21124;-77
2023/03/28 07:13:09;;;;;;;5.00;3.00;;;;;;;6.04;83.41;152913.63;5015945;28;20452;-77
2023/03/28 07:15:43;;;;;;;5.77;2.73;;;;;;;6.09;81.54;152926.53;5019453;28;20530;-77
2023/03/28 07:18:10;;;;;;;5.03;2.83;;;;;;;6.32;80.80;152984.63;5018739;28;20449;-77
2023/03/28 07:20:38;;;;;;;3.90;2.50;;;;;;;6.31;80.60;152980.72;5018197;28;20509;-78
2023/03/28 07:23:05;;;;;;;4.30;2.50;;;;;;;6.33;77.83;152985.91;5016808;28;20488;-77
2023/03/28 07:25:32;;;;;;;4.03;2.70;;;;;;;6.28;82.03;152972.97;5016343;28;20615;-78
2023/03/28 07:27:59;;;;;;;4.57;2.90;;;;;;;6.35;79.84;152992.38;5016974;28;20452;-77
2023/03/28 07:30:27;;;;;;;4.43;2.70;;;;;;;6.32;81.36;152984.63;5027120;28;20452;-77
2023/03/28 07:32:54;;;;;;;4.23;2.97;;;;;;;6.42;82.17;153009.13;5018707;28;20457;-78
2023/03/28 07:35:21;;;;;;;4.20;2.70;;;;;;;6.63;80.60;153063.31;5016426;28;21018;-78
2023/03/28 07:37:49;;;;;;;3.87;3.07;;;;;;;6.85;79.45;153118.81;5009611;28;20965;-78
2023/03/28 07:40:28;;;;;;;4.27;2.90;;;;;;;7.08;77.73;153179.50;5003710;28;20463;-78
2023/03/28 07:42:56;;;;;;;4.87;2.47;;;;;;;6.97;75.38;153149.78;4998773;28;20507;-77
2023/03/28 07:45:23;;;;;;;4.00;2.87;;;;;;;6.84;77.23;153117.53;5015588;28;20458;-77
2023/03/28 07:47:51;;;;;;;4.77;2.87;;;;;;;6.87;77.98;153125.28;5015527;28;20457;-77
2023/03/28 07:50:18;;;;;;;7.47;3.00;;;;;;;6.72;75.49;153086.56;5017571;28;20519;-77
2023/03/28 07:52:46;;;;;;;5.63;2.40;;;;;;;6.62;76.64;153062.03;5001019;28;21039;-77
2023/03/28 07:55:13;;;;;;;3.37;2.40;;;;;;;6.43;75.19;153013.03;5016730;28;20457;-77
2023/03/28 07:57:44;;;;;;;3.33;2.70;;;;;;;6.43;75.42;153011.72;4999646;28;20507;-77
2023/03/28 08:00:25;;;;;;;4.07;2.47;;;;;;;6.73;77.18;153090.41;5002844;28;20547;-77
2023/03/28 08:03:13;;;;;;;2.97;2.23;;;;;;;7.04;68.22;153167.91;5024968;28;20461;-77
2023/03/28 08:05:40;;;;;;;3.37;2.20;;;;;;;6.92;68.22;153138.19;5017854;28;20606;-77
2023/03/28 08:08:08;;;;;;;4.17;2.40;;;;;;;7.03;72.96;153165.28;5000304;28;20511;-77
2023/03/28 08:10:35;;;;;;;3.80;2.20;;;;;;;7.16;71.81;153200.16;5017983;28;20682;-77
2023/03/28 08:13:03;;;;;;;9.10;2.90;;;;;;;7.43;72.67;153267.31;5015486;28;20439;-77
2023/03/28 08:15:30;;;;;;;3.23;2.43;;;;;;;7.51;70.45;153289.28;5016950;28;20523;-77
2023/03/28 08:17:59;;;;;;;4.73;2.50;;;;;;;7.55;72.94;153299.59;5001069;28;20445;-77
2023/03/28 08:20:27;;;;;;;4.03;2.77;;;;;;;7.26;73.40;153225.97;5019304;28;20483;-77
2023/03/28 08:23:01;;;;;;;4.43;2.57;;;;;;;6.99;71.96;153155.00;5011029;28;20618;-77
2023/03/28 08:25:44;;;;;;;3.80;2.40;;;;;;;6.81;73.98;153109.78;5015410;28;20460;-77
2023/03/28 08:28:13;;;;;;;2.80;1.83;;;;;;;6.60;73.92;153055.56;5024002;28;20550;-77
2023/03/28 08:30:40;;;;;;;4.77;2.50;;;;;;;6.50;69.68;153031.06;5017417;28;20629;-77
2023/03/28 08:33:07;;;;;;;3.37;1.87;;;;;;;6.43;75.54;153013.03;5001344;28;20935;-76
2023/03/28 08:35:35;;;;;;;3.87;2.53;;;;;;;6.51;75.20;153033.63;5012417;28;20460;-77
2023/03/28 08:38:08;;;;;;;5.03;2.17;;;;;;;6.75;72.25;153094.31;5015603;28;20460;-77
2023/03/28 08:40:36;;;;;;;5.17;1.80;;;;;;;6.86;64.37;153121.44;5001546;28;20480;-77
2023/03/28 08:43:19;;;;;;;3.07;1.70;;;;;;;6.89;70.19;153130.44;5001843;28;20479;-76
2023/03/28 08:45:50;;;;;;;3.23;2.20;;;;;;;6.91;76.20;153135.59;5009108;28;20551;-76
2023/03/28 08:48:21;;;;;;;4.17;2.77;;;;;;;6.89;70.66;153130.44;5016991;28;20798;-76
2023/03/28 08:50:52;;;;;;;3.00;1.90;;;;;;;7.03;75.26;153165.28;5015671;28;20671;-77
2023/03/28 08:53:26;;;;;;;6.07;2.90;;;;;;;7.07;73.16;153176.91;5016650;28;20451;-76
2023/03/28 08:55:55;;;;;;;2.73;2.07;;;;;;;7.10;71.85;153183.34;5017478;28;20555;-76
2023/03/28 08:58:23;;;;;;;3.20;2.10;;;;;;;7.03;69.95;153166.59;5017477;28;20441;-76
2023/03/28 09:00:51;;;;;;;2.93;2.07;;;;;;;6.84;70.19;153117.53;5016630;28;20452;-76
2023/03/28 09:03:20;;;;;;;4.70;2.70;;;;;;;6.66;69.58;153072.38;5018845;28;20503;-76
2023/03/28 09:05:51;;;;;;;3.50;2.10;;;;;;;6.62;64.01;153060.72;5015624;28;20498;-76
2023/03/28 09:08:49;;;;;;;5.10;2.30;;;;;;;6.63;69.46;153064.63;5021314;28;20952;-77
2023/03/28 09:11:28;;;;;;;3.40;2.43;;;;;;;6.58;70.25;153050.41;4985758;28;20515;-76
2023/03/28 09:14:06;;;;;;;4.43;2.20;;;;;;;6.69;71.11;153080.13;5015412;28;20952;-76
2023/03/28 09:16:43;;;;;;;2.00;1.73;;;;;;;6.78;68.74;153102.03;5002546;28;20449;-76
2023/03/28 09:19:31;;;;;;;2.27;1.77;;;;;;;6.88;71.91;153127.88;4996994;28;20538;-76
2023/03/28 09:22:27;;;;;;;2.27;1.90;;;;;;;6.77;68.93;153099.47;5016926;28;20555;-76
2023/03/28 09:25:01;;;;;;;2.50;1.50;;;;;;;6.71;67.93;153083.97;5001014;28;20485;-76
2023/03/28 09:27:36;;;;;;;2.70;1.33;;;;;;;6.63;67.77;153064.63;5021987;28;20445;-76
2023/03/28 09:30:16;;;;;;;3.37;1.60;;;;;;;6.59;61.35;153053.00;4996166;28;20452;-76
2023/03/28 09:32:43;;;;;;;2.80;1.57;;;;;;;6.66;61.52;153071.06;5015953;28;20443;-77
2023/03/28 09:35:16;;;;;;;2.00;1.80;;;;;;;6.72;64.97;153086.56;5016539;28;20448;-76
2023/03/28 09:37:47;;;;;;;2.83;1.73;;;;;;;6.70;58.12;153081.38;5013126;28;20460;-76
2023/03/28 09:40:19;;;;;;;2.93;1.90;;;;;;;6.80;58.11;153107.22;5024022;28;20467;-76
2023/03/28 09:43:11;;;;;;;4.57;2.40;;;;;;;6.81;65.48;153109.78;5014645;28;20549;-76
2023/03/28 09:45:52;;;;;;;2.70;1.57;;;;;;;6.91;61.46;153135.59;4997928;28;20453;-76
2023/03/28 09:48:38;;;;;;;3.03;1.47;;;;;;;7.08;58.95;153179.50;5013552;28;20434;-76
2023/03/28 09:51:14;;;;;;;3.37;1.70;;;;;;;7.20;61.23;153210.47;5014318;28;20624;-76
2023/03/28 09:53:43;;;;;;;2.47;1.93;;;;;;;7.23;60.62;153218.22;5014263;28;20453;-76
2023/03/28 09:56:24;;;;;;;5.80;2.20;;;;;;;7.22;58.46;153214.38;4993726;28;20456;-76
2023/03/28 09:58:53;;;;;;;5.13;2.60;;;;;;;7.22;66.76;153214.38;5016447;28;20885;-77
2023/03/28 10:01:42;;;;;;;4.30;2.30;;;;;;;7.00;56.41;153158.84;5001015;28;20448;-76
2023/03/28 10:04:33;;;;;;;4.10;1.70;;;;;;;6.87;55.23;153125.28;4999571;28;20495;-76
2023/03/28 10:07:42;;;;;;;4.03;1.57;;;;;;;6.77;60.64;153099.47;5014318;28;21093;-77
2023/03/28 10:10:25;;;;;;;4.97;2.17;;;;;;;6.81;59.29;153108.47;5013051;28;21042;-77
2023/03/28 10:13:03;;;;;;;2.77;1.50;;;;;;;6.78;56.41;153102.03;5014299;28;20437;-77
2023/03/28 10:15:33;;;;;;;5.00;2.17;;;;;;;6.76;61.02;153096.88;5013653;28;20531;-76
2023/03/28 10:18:20;;;;;;;3.40;2.03;;;;;;;6.67;59.79;153074.91;5017277;28;20528;-76
2023/03/28 10:20:56;;;;;;;2.70;1.93;;;;;;;6.66;62.93;153071.06;5000337;28;20519;-77
2023/03/28 10:23:24;;;;;;;2.70;2.10;;;;;;;6.61;64.88;153058.16;5011792;28;20604;-77
2023/03/28 10:26:01;;;;;;;3.00;1.90;;;;;;;6.48;59.16;153024.63;5004611;28;20502;-76
2023/03/28 10:28:30;;;;;;;2.03;1.83;;;;;;;6.47;56.28;153023.31;5015007;28;20491;-76
2023/03/28 10:31:00;;;;;;;4.37;2.63;;;;;;;6.42;63.84;153009.13;5000004;28;20580;-76
2023/03/28 10:33:32;;;;;;;3.50;2.43;;;;;;;6.27;64.22;152970.41;5007558;28;20488;-76
2023/03/28 10:36:27;;;;;;;3.20;1.97;;;;;;;6.00;55.59;152903.34;4998429;28;20453;-76
2023/03/28 10:38:55;;;;;;;4.73;2.10;;;;;;;5.97;56.44;152895.59;5005397;28;20491;-76
2023/03/28 10:41:25;;;;;;;3.30;1.93;;;;;;;6.02;64.27;152907.19;5012982;28;20995;-76
2023/03/28 10:44:18;;;;;;;7.17;2.70;;;;;;;6.01;62.72;152904.66;5012078;28;20485;-77
2023/03/28 10:46:57;;;;;;;3.60;2.37;;;;;;;6.06;65.94;152918.78;4999083;28;20492;-76
2023/03/28 10:49:39;;;;;;;4.30;2.97;;;;;;;6.22;69.26;152957.53;5013396;28;20460;-77
2023/03/28 10:52:12;;;;;;;2.47;2.20;;;;;;;6.24;67.54;152962.66;5003139;28;20768;-76
2023/03/28 10:54:51;;;;;;;3.47;2.50;;;;;;;6.36;62.52;152993.63;5001173;28;20550;-77
2023/03/28 10:57:43;;;;;;;3.07;2.07;;;;;;;6.48;62.62;153025.91;5013715;28;20443;-76
2023/03/28 11:00:15;;;;;;;2.70;2.50;;;;;;;6.55;67.84;153042.66;5006099;28;20460;-76
2023/03/28 11:03:18;;;;;;;2.93;2.27;;;;;;;6.53;63.81;153037.50;5014923;28;20471;-76
2023/03/28 11:05:51;;;;;;;2.43;1.80;;;;;;;6.57;57.80;153047.81;5025889;28;20554;-76
2023/03/28 11:08:33;;;;;;;2.60;2.20;;;;;;;6.66;53.55;153072.38;5000380;28;20583;-76
2023/03/28 11:11:27;;;;;;;3.57;2.27;;;;;;;6.55;55.14;153043.97;5013988;28;20549;-77
2023/03/28 11:13:59;;;;;;;2.17;1.83;;;;;;;6.52;56.30;153034.91;5021743;28;20444;-77
2023/03/28 11:16:37;;;;;;;3.70;2.10;;;;;;;6.49;56.54;153027.16;5018798;28;20533;-77
2023/03/28 11:19:33;;;;;;;3.43;2.67;;;;;;;6.45;62.20;153016.88;5005013;28;20909;-76
2023/03/28 11:22:05;;;;;;;4.20;2.60;;;;;;;6.50;58.22;153029.75;5016122;28;20827;-76
2023/03/28 11:24:40;;;;;;;2.80;2.40;;;;;;;6.60;61.08;153056.88;5028445;28;20559;-76
2023/03/28 11:27:20;;;;;;;3.00;2.20;;;;;;;6.66;64.79;153071.06;5000240;28;20460;-76
2023/03/28 11:30:01;;;;;;;3.23;2.93;;;;;;;6.68;69.37;153076.22;5004938;28;21102;-77
2023/03/28 11:32:38;;;;;;;2.47;1.90;;;;;;;6.68;70.70;153076.22;5020104;28;20449;-76
2023/03/28 11:35:07;;;;;;;4.30;2.30;;;;;;;6.62;63.52;153060.72;5001078;28;20457;-77
2023/03/28 11:37:37;;;;;;;3.93;2.50;;;;;;;6.64;63.94;153067.22;5012068;28;20475;-76
2023/03/28 11:40:09;;;;;;;2.63;2.03;;;;;;;6.64;59.26;153065.91;5011942;28;20457;-77
2023/03/28 11:42:51;;;;;;;3.00;1.97;;;;;;;6.66;62.31;153071.06;4999947;28;20540;-77
2023/03/28 11:45:26;;;;;;;2.50;1.83;;;;;;;6.65;58.58;153069.78;5003686;28;20461;-77
2023/03/28 11:48:04;;;;;;;2.80;1.70;;;;;;;6.71;55.75;153083.97;4997831;28;20502;-76
2023/03/28 11:50:40;;;;;;;2.30;1.90;;;;;;;6.82;56.91;153111.06;5001002;28;20502;-76
2023/03/28 11:53:24;;;;;;;3.10;2.50;;;;;;;6.91;63.45;153135.59;5014738;28;20947;-76
2023/03/28 11:56:02;;;;;;;3.23;2.20;;;;;;;6.97;64.65;153149.78;5015959;28;20490;-76
2023/03/28 11:58:52;;;;;;;4.37;2.60;;;;;;;6.94;63.25;153143.34;5021293;28;20456;-76